sensor_id;sensor_type;location;lat;lon;timestamp;P1;durP1;ratioP1;P2;durP2;ratioP2
40815;SDS011;26535;48.788;9.214;2022-12-11T00:00:16;38.20;;;19.15;;
40815;SDS011;26535;48.788;9.214;2022-12-11T06:02:21;21.52;;;11.50;;
40815;SDS011;26535;48.788;9.214;2022-12-11T06:04:47;22.65;;;12.02;;
40815;SDS011;26535;48.788;9.214;2022-12-11T06:07:13;21.92;;;11.65;;
40815;SDS011;26535;48.788;9.214;2022-12-11T06:09:39;23.42;;;12.05;;
40815;SDS011;26535;48.788;9.214;2022-12-11T06:12:05;23.45;;;11.40;;
40815;SDS011;26535;48.788;9.214;2022-12-11T06:14:31;25.33;;;12.27;;
40815;SDS011;26535;48.788;9.214;2022-12-11T06:16:56;24.30;;;11.75;;
40815;SDS011;26535;48.788;9.214;2022-12-11T06:19:22;22.98;;;12.23;;
40815;SDS011;26535;48.788;9.214;2022-12-11T06:21:48;26.48;;;13.30;;
40815;SDS011;26535;48.788;9.214;2022-12-11T06:24:13;25.42;;;13.48;;
40815;SDS011;26535;48.788;9.214;2022-12-11T06:26:39;28.80;;;14.20;;
40815;SDS011;26535;48.788;9.214;2022-12-11T06:29:05;30.83;;;15.43;;
40815;SDS011;26535;48.788;9.214;2022-12-11T06:31:31;29.45;;;14.90;;
40815;SDS011;26535;48.788;9.214;2022-12-11T06:33:56;30.05;;;14.93;;
40815;SDS011;26535;48.788;9.214;2022-12-11T06:36:22;28.15;;;15.02;;
40815;SDS011;26535;48.788;9.214;2022-12-11T06:38:48;29.92;;;14.93;;
40815;SDS011;26535;48.788;9.214;2022-12-11T06:41:14;32.20;;;15.57;;
40815;SDS011;26535;48.788;9.214;2022-12-11T06:43:41;33.72;;;16.33;;
40815;SDS011;26535;48.788;9.214;2022-12-11T06:46:08;36.08;;;18.08;;
40815;SDS011;26535;48.788;9.214;2022-12-11T06:51:05;39.33;;;19.58;;
40815;SDS011;26535;48.788;9.214;2022-12-11T06:53:32;38.00;;;19.52;;
40815;SDS011;26535;48.788;9.214;2022-12-11T06:56:05;37.67;;;18.48;;
40815;SDS011;26535;48.788;9.214;2022-12-11T06:58:36;33.40;;;17.83;;
40815;SDS011;26535;48.788;9.214;2022-12-11T07:01:03;30.27;;;15.80;;
40815;SDS011;26535;48.788;9.214;2022-12-11T07:03:29;28.67;;;14.57;;
40815;SDS011;26535;48.788;9.214;2022-12-11T07:05:58;30.40;;;14.95;;
40815;SDS011;26535;48.788;9.214;2022-12-11T07:08:28;26.40;;;15.00;;
40815;SDS011;26535;48.788;9.214;2022-12-11T07:10:54;28.08;;;14.93;;
40815;SDS011;26535;48.788;9.214;2022-12-11T07:13:19;27.50;;;14.13;;
40815;SDS011;26535;48.788;9.214;2022-12-11T07:15:45;27.55;;;14.73;;
40815;SDS011;26535;48.788;9.214;2022-12-11T07:18:11;28.67;;;14.30;;
40815;SDS011;26535;48.788;9.214;2022-12-11T07:20:37;29.02;;;14.23;;
40815;SDS011;26535;48.788;9.214;2022-12-11T07:23:02;28.23;;;15.20;;
40815;SDS011;26535;48.788;9.214;2022-12-11T07:25:28;29.35;;;14.63;;
40815;SDS011;26535;48.788;9.214;2022-12-11T07:27:54;28.63;;;15.20;;
40815;SDS011;26535;48.788;9.214;2022-12-11T07:30:20;28.17;;;15.50;;
40815;SDS011;26535;48.788;9.214;2022-12-11T07:32:45;30.23;;;15.63;;
40815;SDS011;26535;48.788;9.214;2022-12-11T07:35:11;30.98;;;16.25;;
40815;SDS011;26535;48.788;9.214;2022-12-11T07:37:38;27.20;;;15.30;;
40815;SDS011;26535;48.788;9.214;2022-12-11T07:40:05;27.63;;;14.95;;
40815;SDS011;26535;48.788;9.214;2022-12-11T07:42:32;27.40;;;13.48;;
40815;SDS011;26535;48.788;9.214;2022-12-11T07:44:57;27.25;;;14.27;;
40815;SDS011;26535;48.788;9.214;2022-12-11T07:47:23;24.13;;;13.52;;
40815;SDS011;26535;48.788;9.214;2022-12-11T07:49:49;26.70;;;14.35;;
40815;SDS011;26535;48.788;9.214;2022-12-11T07:52:14;25.00;;;14.10;;
40815;SDS011;26535;48.788;9.214;2022-12-11T07:54:40;26.10;;;13.38;;
40815;SDS011;26535;48.788;9.214;2022-12-11T07:57:06;23.63;;;13.48;;
40815;SDS011;26535;48.788;9.214;2022-12-11T07:59:32;25.08;;;13.95;;
40815;SDS011;26535;48.788;9.214;2022-12-11T08:01:57;27.13;;;14.50;;
40815;SDS011;26535;48.788;9.214;2022-12-11T08:04:23;25.83;;;13.93;;
40815;SDS011;26535;48.788;9.214;2022-12-11T08:06:49;23.20;;;12.93;;
40815;SDS011;26535;48.788;9.214;2022-12-11T08:09:15;25.45;;;12.88;;
40815;SDS011;26535;48.788;9.214;2022-12-11T08:11:41;23.80;;;13.00;;
40815;SDS011;26535;48.788;9.214;2022-12-11T08:14:07;24.58;;;13.27;;
40815;SDS011;26535;48.788;9.214;2022-12-11T08:16:33;24.48;;;12.82;;
40815;SDS011;26535;48.788;9.214;2022-12-11T08:19:00;23.60;;;12.90;;
40815;SDS011;26535;48.788;9.214;2022-12-11T08:21:26;23.80;;;12.68;;
40815;SDS011;26535;48.788;9.214;2022-12-11T08:23:53;22.17;;;11.77;;
40815;SDS011;26535;48.788;9.214;2022-12-11T08:26:23;19.75;;;11.48;;
40815;SDS011;26535;48.788;9.214;2022-12-11T08:28:51;18.33;;;10.57;;
40815;SDS011;26535;48.788;9.214;2022-12-11T08:31:17;20.55;;;11.70;;
40815;SDS011;26535;48.788;9.214;2022-12-11T08:33:44;20.60;;;11.90;;
40815;SDS011;26535;48.788;9.214;2022-12-11T08:36:12;23.83;;;12.15;;
40815;SDS011;26535;48.788;9.214;2022-12-11T08:38:39;20.00;;;11.05;;
40815;SDS011;26535;48.788;9.214;2022-12-11T08:41:09;20.08;;;11.32;;
40815;SDS011;26535;48.788;9.214;2022-12-11T08:43:36;19.15;;;11.05;;
40815;SDS011;26535;48.788;9.214;2022-12-11T08:46:03;21.00;;;10.77;;
40815;SDS011;26535;48.788;9.214;2022-12-11T08:48:29;19.02;;;10.38;;
40815;SDS011;26535;48.788;9.214;2022-12-11T08:50:57;17.65;;;9.85;;
40815;SDS011;26535;48.788;9.214;2022-12-11T08:53:24;20.60;;;10.45;;
40815;SDS011;26535;48.788;9.214;2022-12-11T08:55:50;21.42;;;10.93;;
40815;SDS011;26535;48.788;9.214;2022-12-11T08:58:16;19.33;;;10.85;;
40815;SDS011;26535;48.788;9.214;2022-12-11T09:00:42;19.50;;;11.10;;
40815;SDS011;26535;48.788;9.214;2022-12-11T09:03:07;23.23;;;12.80;;
40815;SDS011;26535;48.788;9.214;2022-12-11T09:05:33;21.80;;;11.93;;
40815;SDS011;26535;48.788;9.214;2022-12-11T09:07:59;22.40;;;11.80;;
40815;SDS011;26535;48.788;9.214;2022-12-11T09:10:25;20.17;;;11.27;;
40815;SDS011;26535;48.788;9.214;2022-12-11T09:12:51;23.20;;;12.52;;
40815;SDS011;26535;48.788;9.214;2022-12-11T09:15:17;22.33;;;12.25;;
40815;SDS011;26535;48.788;9.214;2022-12-11T09:17:43;22.13;;;11.88;;
40815;SDS011;26535;48.788;9.214;2022-12-11T09:20:11;21.38;;;12.60;;
40815;SDS011;26535;48.788;9.214;2022-12-11T09:22:37;24.63;;;13.20;;
40815;SDS011;26535;48.788;9.214;2022-12-11T09:25:04;20.67;;;12.13;;
40815;SDS011;26535;48.788;9.214;2022-12-11T09:27:30;20.85;;;11.60;;
40815;SDS011;26535;48.788;9.214;2022-12-11T09:29:55;23.23;;;12.65;;
40815;SDS011;26535;48.788;9.214;2022-12-11T09:32:21;21.08;;;12.55;;
40815;SDS011;26535;48.788;9.214;2022-12-11T09:34:49;23.25;;;13.15;;
40815;SDS011;26535;48.788;9.214;2022-12-11T09:37:15;23.20;;;12.52;;
40815;SDS011;26535;48.788;9.214;2022-12-11T09:39:41;23.98;;;13.02;;
40815;SDS011;26535;48.788;9.214;2022-12-11T09:42:18;25.00;;;13.85;;
40815;SDS011;26535;48.788;9.214;2022-12-11T09:44:53;22.92;;;13.55;;
40815;SDS011;26535;48.788;9.214;2022-12-11T09:47:29;24.92;;;12.82;;
40815;SDS011;26535;48.788;9.214;2022-12-11T09:57:48;21.10;;;12.45;;
40815;SDS011;26535;48.788;9.214;2022-12-11T10:00:32;23.63;;;13.65;;
40815;SDS011;26535;48.788;9.214;2022-12-11T10:06:14;19.40;;;12.05;;
40815;SDS011;26535;48.788;9.214;2022-12-11T10:17:32;20.67;;;12.90;;
40815;SDS011;26535;48.788;9.214;2022-12-11T10:22:44;26.15;;;14.25;;
40815;SDS011;26535;48.788;9.214;2022-12-11T10:25:18;22.77;;;13.00;;
40815;SDS011;26535;48.788;9.214;2022-12-11T10:27:49;23.90;;;13.77;;
40815;SDS011;26535;48.788;9.214;2022-12-11T10:30:19;21.95;;;13.25;;
40815;SDS011;26535;48.788;9.214;2022-12-11T10:38:01;22.77;;;13.15;;
40815;SDS011;26535;48.788;9.214;2022-12-11T10:40:53;22.38;;;12.90;;
40815;SDS011;26535;48.788;9.214;2022-12-11T10:46:21;22.40;;;12.60;;
40815;SDS011;26535;48.788;9.214;2022-12-11T10:48:50;23.52;;;13.48;;
40815;SDS011;26535;48.788;9.214;2022-12-11T10:51:25;22.45;;;12.80;;
40815;SDS011;26535;48.788;9.214;2022-12-11T10:56:45;22.85;;;13.20;;
40815;SDS011;26535;48.788;9.214;2022-12-11T11:01:57;23.02;;;12.73;;
40815;SDS011;26535;48.788;9.214;2022-12-11T11:04:30;22.45;;;13.02;;
40815;SDS011;26535;48.788;9.214;2022-12-11T11:07:10;22.35;;;13.65;;
40815;SDS011;26535;48.788;9.214;2022-12-11T11:09:38;22.83;;;12.65;;
40815;SDS011;26535;48.788;9.214;2022-12-11T11:12:18;24.08;;;13.45;;
40815;SDS011;26535;48.788;9.214;2022-12-11T11:14:57;24.02;;;12.57;;
40815;SDS011;26535;48.788;9.214;2022-12-11T11:17:27;25.95;;;13.07;;
40815;SDS011;26535;48.788;9.214;2022-12-11T11:19:55;22.63;;;13.00;;
40815;SDS011;26535;48.788;9.214;2022-12-11T11:22:24;21.08;;;12.77;;
40815;SDS011;26535;48.788;9.214;2022-12-11T11:24:55;22.95;;;13.10;;
40815;SDS011;26535;48.788;9.214;2022-12-11T11:27:30;21.27;;;12.32;;
40815;SDS011;26535;48.788;9.214;2022-12-11T11:30:04;24.63;;;13.65;;
40815;SDS011;26535;48.788;9.214;2022-12-11T11:32:41;21.70;;;12.38;;
40815;SDS011;26535;48.788;9.214;2022-12-11T11:37:39;21.02;;;12.23;;
40815;SDS011;26535;48.788;9.214;2022-12-11T11:40:22;20.45;;;12.02;;
40815;SDS011;26535;48.788;9.214;2022-12-11T11:42:57;20.38;;;11.93;;
40815;SDS011;26535;48.788;9.214;2022-12-11T11:45:36;21.60;;;11.98;;
40815;SDS011;26535;48.788;9.214;2022-12-11T11:51:06;20.47;;;11.87;;
40815;SDS011;26535;48.788;9.214;2022-12-11T11:53:54;20.65;;;10.88;;
40815;SDS011;26535;48.788;9.214;2022-12-11T11:56:30;21.25;;;12.30;;
40815;SDS011;26535;48.788;9.214;2022-12-11T11:59:06;21.50;;;12.07;;
40815;SDS011;26535;48.788;9.214;2022-12-11T12:01:40;20.27;;;11.65;;
40815;SDS011;26535;48.788;9.214;2022-12-11T12:04:06;19.38;;;11.93;;
40815;SDS011;26535;48.788;9.214;2022-12-11T12:09:27;22.52;;;13.07;;
40815;SDS011;26535;48.788;9.214;2022-12-11T12:17:46;21.73;;;12.32;;
40815;SDS011;26535;48.788;9.214;2022-12-11T12:42:51;21.50;;;12.70;;
40815;SDS011;26535;48.788;9.214;2022-12-11T12:45:28;23.42;;;12.98;;
40815;SDS011;26535;48.788;9.214;2022-12-11T12:48:03;21.25;;;12.68;;
40815;SDS011;26535;48.788;9.214;2022-12-11T12:50:50;22.63;;;13.25;;
40815;SDS011;26535;48.788;9.214;2022-12-11T12:53:19;19.90;;;11.65;;
40815;SDS011;26535;48.788;9.214;2022-12-11T12:55:47;24.05;;;12.77;;
40815;SDS011;26535;48.788;9.214;2022-12-11T13:01:18;20.73;;;12.13;;
40815;SDS011;26535;48.788;9.214;2022-12-11T13:03:56;20.10;;;11.75;;
40815;SDS011;26535;48.788;9.214;2022-12-11T13:06:51;21.33;;;12.43;;
40815;SDS011;26535;48.788;9.214;2022-12-11T13:09:23;21.58;;;11.80;;
40815;SDS011;26535;48.788;9.214;2022-12-11T13:11:54;19.55;;;10.98;;
40815;SDS011;26535;48.788;9.214;2022-12-11T13:14:26;21.00;;;11.35;;
40815;SDS011;26535;48.788;9.214;2022-12-11T13:17:06;20.15;;;11.98;;
40815;SDS011;26535;48.788;9.214;2022-12-11T13:19:44;22.77;;;13.55;;
40815;SDS011;26535;48.788;9.214;2022-12-11T13:27:45;21.73;;;12.82;;
40815;SDS011;26535;48.788;9.214;2022-12-11T13:32:40;22.48;;;12.75;;
40815;SDS011;26535;48.788;9.214;2022-12-11T13:35:13;22.13;;;12.85;;
40815;SDS011;26535;48.788;9.214;2022-12-11T13:37:41;25.17;;;13.82;;
40815;SDS011;26535;48.788;9.214;2022-12-11T13:40:14;24.23;;;14.02;;
40815;SDS011;26535;48.788;9.214;2022-12-11T13:42:51;27.63;;;14.68;;
40815;SDS011;26535;48.788;9.214;2022-12-11T13:45:28;26.08;;;14.88;;
40815;SDS011;26535;48.788;9.214;2022-12-11T13:48:14;27.27;;;14.90;;
40815;SDS011;26535;48.788;9.214;2022-12-11T13:50:43;26.65;;;14.35;;
40815;SDS011;26535;48.788;9.214;2022-12-11T13:53:14;28.58;;;15.13;;
40815;SDS011;26535;48.788;9.214;2022-12-11T13:55:42;29.05;;;15.98;;
40815;SDS011;26535;48.788;9.214;2022-12-11T13:58:18;29.75;;;15.38;;
40815;SDS011;26535;48.788;9.214;2022-12-11T14:00:53;29.20;;;15.27;;
40815;SDS011;26535;48.788;9.214;2022-12-11T14:03:39;28.20;;;14.50;;
40815;SDS011;26535;48.788;9.214;2022-12-11T14:06:19;25.73;;;14.00;;
40815;SDS011;26535;48.788;9.214;2022-12-11T14:08:47;28.13;;;14.15;;
40815;SDS011;26535;48.788;9.214;2022-12-11T14:11:17;26.83;;;14.50;;
40815;SDS011;26535;48.788;9.214;2022-12-11T14:13:55;29.92;;;14.50;;
40815;SDS011;26535;48.788;9.214;2022-12-11T14:16:23;26.20;;;13.73;;
40815;SDS011;26535;48.788;9.214;2022-12-11T14:18:50;28.88;;;15.50;;
40815;SDS011;26535;48.788;9.214;2022-12-11T14:21:22;29.88;;;14.85;;
40815;SDS011;26535;48.788;9.214;2022-12-11T14:24:09;31.60;;;15.50;;
40815;SDS011;26535;48.788;9.214;2022-12-11T14:26:37;29.95;;;15.40;;
40815;SDS011;26535;48.788;9.214;2022-12-11T14:29:03;33.92;;;15.60;;
40815;SDS011;26535;48.788;9.214;2022-12-11T14:31:33;32.10;;;16.23;;
40815;SDS011;26535;48.788;9.214;2022-12-11T14:34:07;31.02;;;15.63;;
40815;SDS011;26535;48.788;9.214;2022-12-11T14:36:45;36.28;;;18.88;;
40815;SDS011;26535;48.788;9.214;2022-12-11T14:39:13;36.63;;;18.73;;
40815;SDS011;26535;48.788;9.214;2022-12-11T14:41:46;40.00;;;18.20;;
40815;SDS011;26535;48.788;9.214;2022-12-11T14:44:17;36.83;;;18.27;;
40815;SDS011;26535;48.788;9.214;2022-12-11T14:46:47;36.15;;;17.17;;
40815;SDS011;26535;48.788;9.214;2022-12-11T14:49:20;32.97;;;16.05;;
40815;SDS011;26535;48.788;9.214;2022-12-11T14:51:53;31.17;;;16.73;;
40815;SDS011;26535;48.788;9.214;2022-12-11T14:54:24;33.90;;;15.50;;
40815;SDS011;26535;48.788;9.214;2022-12-11T14:56:57;32.70;;;16.75;;
40815;SDS011;26535;48.788;9.214;2022-12-11T14:59:25;33.58;;;17.23;;
40815;SDS011;26535;48.788;9.214;2022-12-11T15:01:57;36.60;;;17.85;;
40815;SDS011;26535;48.788;9.214;2022-12-11T15:04:28;32.50;;;15.93;;
40815;SDS011;26535;48.788;9.214;2022-12-11T15:06:56;33.15;;;16.77;;
40815;SDS011;26535;48.788;9.214;2022-12-11T15:09:27;35.55;;;16.70;;
40815;SDS011;26535;48.788;9.214;2022-12-11T15:12:16;32.13;;;15.50;;
40815;SDS011;26535;48.788;9.214;2022-12-11T15:17:19;32.22;;;15.27;;
40815;SDS011;26535;48.788;9.214;2022-12-11T15:20:01;28.10;;;13.18;;
40815;SDS011;26535;48.788;9.214;2022-12-11T15:22:33;35.40;;;17.45;;
40815;SDS011;26535;48.788;9.214;2022-12-11T15:25:00;35.17;;;16.85;;
40815;SDS011;26535;48.788;9.214;2022-12-11T15:27:33;34.88;;;17.98;;
40815;SDS011;26535;48.788;9.214;2022-12-11T15:30:02;33.75;;;16.98;;
40815;SDS011;26535;48.788;9.214;2022-12-11T15:32:39;30.60;;;15.85;;
40815;SDS011;26535;48.788;9.214;2022-12-11T15:35:25;31.92;;;16.50;;
40815;SDS011;26535;48.788;9.214;2022-12-11T15:37:51;33.97;;;16.58;;
40815;SDS011;26535;48.788;9.214;2022-12-11T15:40:18;30.45;;;15.80;;
40815;SDS011;26535;48.788;9.214;2022-12-11T15:42:44;34.05;;;16.13;;
40815;SDS011;26535;48.788;9.214;2022-12-11T15:45:15;34.72;;;16.30;;
40815;SDS011;26535;48.788;9.214;2022-12-11T15:47:42;35.58;;;17.55;;
40815;SDS011;26535;48.788;9.214;2022-12-11T15:50:19;38.83;;;17.90;;
40815;SDS011;26535;48.788;9.214;2022-12-11T15:55:13;33.17;;;16.50;;
40815;SDS011;26535;48.788;9.214;2022-12-11T15:57:53;34.78;;;16.70;;
40815;SDS011;26535;48.788;9.214;2022-12-11T16:00:20;35.70;;;17.40;;
40815;SDS011;26535;48.788;9.214;2022-12-11T16:02:48;37.17;;;18.42;;
40815;SDS011;26535;48.788;9.214;2022-12-11T16:05:14;38.83;;;18.75;;
40815;SDS011;26535;48.788;9.214;2022-12-11T16:07:39;38.80;;;18.75;;
40815;SDS011;26535;48.788;9.214;2022-12-11T16:10:05;37.83;;;18.95;;
40815;SDS011;26535;48.788;9.214;2022-12-11T16:12:35;40.67;;;18.95;;
40815;SDS011;26535;48.788;9.214;2022-12-11T16:15:01;35.65;;;19.00;;
40815;SDS011;26535;48.788;9.214;2022-12-11T16:17:27;39.95;;;19.00;;
40815;SDS011;26535;48.788;9.214;2022-12-11T16:19:53;40.60;;;20.23;;
40815;SDS011;26535;48.788;9.214;2022-12-11T16:22:18;38.47;;;18.65;;
40815;SDS011;26535;48.788;9.214;2022-12-11T16:24:44;40.65;;;19.45;;
40815;SDS011;26535;48.788;9.214;2022-12-11T16:27:10;40.90;;;19.70;;
40815;SDS011;26535;48.788;9.214;2022-12-11T16:29:37;39.53;;;19.40;;
40815;SDS011;26535;48.788;9.214;2022-12-11T16:32:04;41.42;;;19.23;;
40815;SDS011;26535;48.788;9.214;2022-12-11T16:34:34;40.33;;;19.08;;
40815;SDS011;26535;48.788;9.214;2022-12-11T16:37:01;44.95;;;21.25;;
40815;SDS011;26535;48.788;9.214;2022-12-11T16:39:28;42.28;;;19.70;;
40815;SDS011;26535;48.788;9.214;2022-12-11T16:41:54;40.60;;;19.73;;
40815;SDS011;26535;48.788;9.214;2022-12-11T16:44:22;40.75;;;19.55;;
40815;SDS011;26535;48.788;9.214;2022-12-11T16:46:49;38.85;;;18.73;;
40815;SDS011;26535;48.788;9.214;2022-12-11T16:49:16;41.92;;;18.98;;
40815;SDS011;26535;48.788;9.214;2022-12-11T16:51:42;38.72;;;18.23;;
40815;SDS011;26535;48.788;9.214;2022-12-11T16:54:08;36.30;;;18.48;;
40815;SDS011;26535;48.788;9.214;2022-12-11T16:56:35;39.75;;;17.98;;
40815;SDS011;26535;48.788;9.214;2022-12-11T16:59:01;40.83;;;20.27;;
40815;SDS011;26535;48.788;9.214;2022-12-11T17:01:28;41.90;;;19.08;;
40815;SDS011;26535;48.788;9.214;2022-12-11T17:03:55;43.95;;;20.05;;
40815;SDS011;26535;48.788;9.214;2022-12-11T17:06:21;42.92;;;19.98;;
40815;SDS011;26535;48.788;9.214;2022-12-11T17:08:47;40.08;;;19.08;;
40815;SDS011;26535;48.788;9.214;2022-12-11T17:11:16;37.75;;;18.92;;
40815;SDS011;26535;48.788;9.214;2022-12-11T17:13:44;41.65;;;19.77;;
40815;SDS011;26535;48.788;9.214;2022-12-11T17:16:11;41.45;;;19.65;;
40815;SDS011;26535;48.788;9.214;2022-12-11T17:18:39;43.78;;;19.83;;
40815;SDS011;26535;48.788;9.214;2022-12-11T17:21:09;39.88;;;20.10;;
40815;SDS011;26535;48.788;9.214;2022-12-11T17:23:38;41.58;;;18.83;;
40815;SDS011;26535;48.788;9.214;2022-12-11T17:26:07;44.50;;;19.58;;
40815;SDS011;26535;48.788;9.214;2022-12-11T17:28:33;44.05;;;20.73;;
40815;SDS011;26535;48.788;9.214;2022-12-11T17:31:02;40.10;;;20.10;;
40815;SDS011;26535;48.788;9.214;2022-12-11T17:33:30;41.38;;;20.45;;
40815;SDS011;26535;48.788;9.214;2022-12-11T17:35:59;39.65;;;19.33;;
40815;SDS011;26535;48.788;9.214;2022-12-11T17:38:25;44.15;;;20.27;;
40815;SDS011;26535;48.788;9.214;2022-12-11T17:40:52;42.70;;;20.35;;
40815;SDS011;26535;48.788;9.214;2022-12-11T17:43:21;41.28;;;19.75;;
40815;SDS011;26535;48.788;9.214;2022-12-11T17:45:48;44.28;;;20.83;;
40815;SDS011;26535;48.788;9.214;2022-12-11T17:48:20;43.15;;;20.55;;
40815;SDS011;26535;48.788;9.214;2022-12-11T17:50:47;41.08;;;19.67;;
40815;SDS011;26535;48.788;9.214;2022-12-11T17:53:14;39.75;;;20.05;;
40815;SDS011;26535;48.788;9.214;2022-12-11T17:55:42;42.25;;;19.95;;
40815;SDS011;26535;48.788;9.214;2022-12-11T17:58:09;42.28;;;19.58;;
40815;SDS011;26535;48.788;9.214;2022-12-11T18:00:39;41.25;;;19.50;;
40815;SDS011;26535;48.788;9.214;2022-12-11T18:03:07;43.33;;;20.38;;
40815;SDS011;26535;48.788;9.214;2022-12-11T18:05:33;39.15;;;18.83;;
40815;SDS011;26535;48.788;9.214;2022-12-11T18:07:59;40.20;;;20.27;;
40815;SDS011;26535;48.788;9.214;2022-12-11T18:10:25;43.55;;;20.63;;
40815;SDS011;26535;48.788;9.214;2022-12-11T18:15:19;37.88;;;19.10;;
40815;SDS011;26535;48.788;9.214;2022-12-11T18:17:45;41.45;;;20.35;;
40815;SDS011;26535;48.788;9.214;2022-12-11T18:20:11;41.67;;;20.75;;
40815;SDS011;26535;48.788;9.214;2022-12-11T18:22:41;42.15;;;21.23;;
40815;SDS011;26535;48.788;9.214;2022-12-11T18:25:08;40.83;;;19.00;;
40815;SDS011;26535;48.788;9.214;2022-12-11T18:27:35;45.55;;;22.80;;
40815;SDS011;26535;48.788;9.214;2022-12-11T18:30:02;41.25;;;19.67;;
40815;SDS011;26535;48.788;9.214;2022-12-11T18:32:34;41.47;;;19.17;;
40815;SDS011;26535;48.788;9.214;2022-12-11T18:34:59;39.78;;;20.15;;
40815;SDS011;26535;48.788;9.214;2022-12-11T18:37:29;45.25;;;20.85;;
40815;SDS011;26535;48.788;9.214;2022-12-11T18:39:58;38.05;;;18.10;;
40815;SDS011;26535;48.788;9.214;2022-12-11T18:42:24;41.30;;;20.40;;
40815;SDS011;26535;48.788;9.214;2022-12-11T18:44:49;40.10;;;20.52;;
40815;SDS011;26535;48.788;9.214;2022-12-11T18:47:15;41.78;;;21.00;;
40815;SDS011;26535;48.788;9.214;2022-12-11T18:49:41;38.67;;;19.50;;
40815;SDS011;26535;48.788;9.214;2022-12-11T18:52:07;42.38;;;20.08;;
40815;SDS011;26535;48.788;9.214;2022-12-11T18:54:36;43.10;;;21.30;;
40815;SDS011;26535;48.788;9.214;2022-12-11T18:57:07;41.17;;;19.83;;
40815;SDS011;26535;48.788;9.214;2022-12-11T18:59:34;40.78;;;19.38;;
40815;SDS011;26535;48.788;9.214;2022-12-11T19:02:00;41.83;;;19.67;;
40815;SDS011;26535;48.788;9.214;2022-12-11T19:04:26;43.58;;;20.73;;
40815;SDS011;26535;48.788;9.214;2022-12-11T19:06:52;45.17;;;21.50;;
40815;SDS011;26535;48.788;9.214;2022-12-11T19:09:17;46.40;;;21.00;;
40815;SDS011;26535;48.788;9.214;2022-12-11T19:11:47;45.03;;;21.80;;
40815;SDS011;26535;48.788;9.214;2022-12-11T19:14:13;47.47;;;22.70;;
40815;SDS011;26535;48.788;9.214;2022-12-11T19:16:40;43.28;;;21.70;;
40815;SDS011;26535;48.788;9.214;2022-12-11T19:19:13;48.88;;;22.38;;
40815;SDS011;26535;48.788;9.214;2022-12-11T19:21:41;48.58;;;22.95;;
40815;SDS011;26535;48.788;9.214;2022-12-11T19:24:10;47.45;;;22.42;;
40815;SDS011;26535;48.788;9.214;2022-12-11T19:26:41;43.78;;;22.63;;
40815;SDS011;26535;48.788;9.214;2022-12-11T19:29:08;48.33;;;23.30;;
40815;SDS011;26535;48.788;9.214;2022-12-11T19:31:34;49.72;;;23.08;;
40815;SDS011;26535;48.788;9.214;2022-12-11T19:34:01;45.13;;;22.98;;
40815;SDS011;26535;48.788;9.214;2022-12-11T19:36:28;51.00;;;23.50;;
40815;SDS011;26535;48.788;9.214;2022-12-11T19:38:55;45.90;;;21.55;;
40815;SDS011;26535;48.788;9.214;2022-12-11T19:41:30;46.38;;;23.35;;
40815;SDS011;26535;48.788;9.214;2022-12-11T19:43:57;47.13;;;22.35;;
40815;SDS011;26535;48.788;9.214;2022-12-11T19:46:23;48.80;;;23.00;;
40815;SDS011;26535;48.788;9.214;2022-12-11T19:48:51;46.72;;;22.10;;
40815;SDS011;26535;48.788;9.214;2022-12-11T19:51:25;48.75;;;22.95;;
40815;SDS011;26535;48.788;9.214;2022-12-11T19:53:59;47.90;;;22.42;;
40815;SDS011;26535;48.788;9.214;2022-12-11T19:56:29;50.90;;;23.05;;
40815;SDS011;26535;48.788;9.214;2022-12-11T19:58:55;48.40;;;22.75;;
40815;SDS011;26535;48.788;9.214;2022-12-11T20:01:26;47.25;;;22.77;;
40815;SDS011;26535;48.788;9.214;2022-12-11T20:03:59;53.42;;;23.35;;
40815;SDS011;26535;48.788;9.214;2022-12-11T20:06:27;49.65;;;22.58;;
40815;SDS011;26535;48.788;9.214;2022-12-11T20:08:54;50.83;;;23.45;;
40815;SDS011;26535;48.788;9.214;2022-12-11T20:11:20;50.33;;;23.33;;
40815;SDS011;26535;48.788;9.214;2022-12-11T20:13:46;44.70;;;22.08;;
40815;SDS011;26535;48.788;9.214;2022-12-11T20:16:13;49.30;;;23.25;;
40815;SDS011;26535;48.788;9.214;2022-12-11T20:18:40;50.25;;;24.63;;
40815;SDS011;26535;48.788;9.214;2022-12-11T20:21:08;47.05;;;22.23;;
40815;SDS011;26535;48.788;9.214;2022-12-11T20:23:36;45.55;;;22.45;;
40815;SDS011;26535;48.788;9.214;2022-12-11T20:26:06;42.40;;;21.35;;
40815;SDS011;26535;48.788;9.214;2022-12-11T20:28:43;41.00;;;20.42;;
40815;SDS011;26535;48.788;9.214;2022-12-11T20:31:16;42.03;;;21.58;;
40815;SDS011;26535;48.788;9.214;2022-12-11T20:33:48;42.38;;;20.88;;
40815;SDS011;26535;48.788;9.214;2022-12-11T20:36:15;39.97;;;20.45;;
40815;SDS011;26535;48.788;9.214;2022-12-11T20:38:42;41.40;;;21.63;;
40815;SDS011;26535;48.788;9.214;2022-12-11T20:41:10;40.20;;;20.75;;
40815;SDS011;26535;48.788;9.214;2022-12-11T20:43:37;39.42;;;20.80;;
40815;SDS011;26535;48.788;9.214;2022-12-11T20:46:04;40.45;;;20.88;;
40815;SDS011;26535;48.788;9.214;2022-12-11T20:48:31;41.53;;;20.83;;
40815;SDS011;26535;48.788;9.214;2022-12-11T20:51:01;41.15;;;21.73;;
40815;SDS011;26535;48.788;9.214;2022-12-11T20:53:28;39.63;;;20.95;;
40815;SDS011;26535;48.788;9.214;2022-12-11T20:55:57;46.67;;;23.33;;
40815;SDS011;26535;48.788;9.214;2022-12-11T20:58:23;41.58;;;21.15;;
40815;SDS011;26535;48.788;9.214;2022-12-11T21:00:49;39.55;;;19.70;;
40815;SDS011;26535;48.788;9.214;2022-12-11T21:03:18;36.45;;;19.80;;
40815;SDS011;26535;48.788;9.214;2022-12-11T21:05:44;40.92;;;21.33;;
40815;SDS011;26535;48.788;9.214;2022-12-11T21:08:11;38.72;;;20.85;;
40815;SDS011;26535;48.788;9.214;2022-12-11T21:10:41;38.40;;;20.52;;
40815;SDS011;26535;48.788;9.214;2022-12-11T21:13:08;35.50;;;19.27;;
40815;SDS011;26535;48.788;9.214;2022-12-11T21:15:34;39.47;;;20.08;;
40815;SDS011;26535;48.788;9.214;2022-12-11T21:18:01;39.40;;;20.75;;
40815;SDS011;26535;48.788;9.214;2022-12-11T21:20:27;39.35;;;20.80;;
40815;SDS011;26535;48.788;9.214;2022-12-11T21:22:54;41.25;;;20.73;;
40815;SDS011;26535;48.788;9.214;2022-12-11T21:25:21;36.58;;;19.83;;
40815;SDS011;26535;48.788;9.214;2022-12-11T21:27:48;45.50;;;21.27;;
40815;SDS011;26535;48.788;9.214;2022-12-11T21:30:14;36.97;;;19.90;;
40815;SDS011;26535;48.788;9.214;2022-12-11T21:32:40;35.60;;;19.63;;
40815;SDS011;26535;48.788;9.214;2022-12-11T21:35:06;41.22;;;21.23;;
40815;SDS011;26535;48.788;9.214;2022-12-11T21:37:32;41.40;;;20.38;;
40815;SDS011;26535;48.788;9.214;2022-12-11T21:39:58;38.17;;;19.95;;
40815;SDS011;26535;48.788;9.214;2022-12-11T21:42:24;38.22;;;19.80;;
40815;SDS011;26535;48.788;9.214;2022-12-11T21:44:51;41.10;;;21.67;;
40815;SDS011;26535;48.788;9.214;2022-12-11T21:47:19;37.42;;;20.42;;
40815;SDS011;26535;48.788;9.214;2022-12-11T21:49:45;40.03;;;20.40;;
40815;SDS011;26535;48.788;9.214;2022-12-11T21:52:11;40.00;;;19.80;;
40815;SDS011;26535;48.788;9.214;2022-12-11T21:54:38;40.03;;;21.23;;
40815;SDS011;26535;48.788;9.214;2022-12-11T21:57:04;39.92;;;19.92;;
40815;SDS011;26535;48.788;9.214;2022-12-11T21:59:30;37.65;;;19.55;;
40815;SDS011;26535;48.788;9.214;2022-12-11T22:01:58;39.53;;;19.45;;
40815;SDS011;26535;48.788;9.214;2022-12-11T22:04:24;38.97;;;19.80;;